Time;durP1;ratioP1;P1;durP2;ratioP2;P2;SDS_P1;SDS_P2;PMS_P1;PMS_P2;Temp;Humidity;BMP_temperature;BMP_pressure;BME280_temperature;BME280_humidity;BME280_pressure;Samples;Min_cycle;Max_cycle;Signal;HPM_P1;HPM_P2
2021/07/05 00:01:05;;;;;;;8.78;5.53;;;;;;;20.01;89.05;99646.55;1673889;84;21417;-39
2021/07/05 00:03:32;;;;;;;6.72;5.20;;;;;;;20.02;88.82;99647.41;1671158;84;21043;-39
2021/07/05 00:05:59;;;;;;;8.73;5.35;;;;;;;20.00;88.65;99658.00;1687825;83;20933;-40
2021/07/05 00:08:27;;;;;;;6.95;5.45;;;;;;;19.97;88.53;99660.03;1650945;85;22233;-40
2021/07/05 00:10:55;;;;;;;5.97;5.15;;;;;;;19.92;88.52;99673.47;1665240;85;21339;-38
2021/07/05 00:13:21;;;;;;;12.30;5.03;;;;;;;19.83;88.63;99673.61;1661764;84;20945;-37
2021/07/05 00:15:50;;;;;;;8.45;5.17;;;;;;;19.74;88.98;99682.95;1673753;84;20999;-40
2021/07/05 00:18:17;;;;;;;14.03;5.87;;;;;;;19.67;89.16;99684.33;1673498;84;21495;-38
2021/07/05 00:20:45;;;;;;;15.05;5.42;;;;;;;19.60;89.50;99689.16;1672462;84;21468;-38
2021/07/05 00:23:13;;;;;;;9.23;5.53;;;;;;;19.53;89.78;99696.61;1667026;84;20890;-39
2021/07/05 00:25:40;;;;;;;12.55;6.22;;;;;;;19.48;89.96;99696.57;1653819;84;21003;-38
2021/07/05 00:28:08;;;;;;;8.65;5.47;;;;;;;19.42;90.27;99700.44;1672261;84;21050;-39
2021/07/05 00:30:38;;;;;;;9.05;4.78;;;;;;;19.37;90.56;99706.48;1672688;84;21037;-38
2021/07/05 00:33:05;;;;;;;12.50;5.15;;;;;;;19.33;90.82;99714.19;1653701;85;21223;-39
2021/07/05 00:35:31;;;;;;;21.20;6.25;;;;;;;19.27;91.05;99718.05;1672543;84;20990;-39
2021/07/05 00:37:58;;;;;;;9.55;5.58;;;;;;;19.21;91.27;99712.73;1692119;83;20980;-39
2021/07/05 00:40:25;;;;;;;7.67;5.37;;;;;;;19.16;91.62;99712.21;1746380;81;20947;-39
2021/07/05 00:42:52;;;;;;;6.70;5.20;;;;;;;19.14;91.89;99718.03;1743487;81;21039;-39
2021/07/05 00:45:20;;;;;;;8.68;4.87;;;;;;;19.13;92.20;99715.50;1740831;81;21770;-39
2021/07/05 00:47:47;;;;;;;6.80;5.17;;;;;;;19.12;92.33;99709.88;1717776;81;21460;-39
2021/07/05 00:50:14;;;;;;;9.33;5.47;;;;;;;19.08;92.49;99706.64;1744895;81;20939;-39
2021/07/05 00:52:41;;;;;;;6.17;4.95;;;;;;;19.05;92.68;99708.98;1744329;81;20991;-39
2021/07/05 00:55:10;;;;;;;15.40;5.47;;;;;;;19.02;92.81;99709.19;1746486;81;21639;-39
2021/07/05 00:57:38;;;;;;;9.18;5.28;;;;;;;19.02;93.02;99709.19;1749104;81;20975;-39
2021/07/05 01:00:13;;;;;;;11.15;4.90;;;;;;;19.00;93.04;99714.16;1741085;81;20955;-39
2021/07/05 01:02:39;;;;;;;9.50;4.95;;;;;;;18.96;93.11;99713.02;1734666;81;20896;-38
2021/07/05 01:05:07;;;;;;;12.68;5.75;;;;;;;18.94;93.27;99707.48;1720393;82;20889;-38
2021/07/05 01:07:33;;;;;;;6.20;5.05;;;;;;;18.92;93.62;99708.92;1748512;81;20991;-38
2021/07/05 01:10:00;;;;;;;6.28;5.12;;;;;;;18.91;93.81;99705.92;1747430;81;21052;-38
2021/07/05 01:12:28;;;;;;;12.53;5.42;;;;;;;18.90;93.93;99706.02;1747114;81;20976;-38
2021/07/05 01:14:55;;;;;;;9.70;5.65;;;;;;;18.88;94.05;99706.13;1743726;81;21027;-39
2021/07/05 01:17:21;;;;;;;15.50;5.35;;;;;;;18.86;94.13;99711.95;1746829;81;20996;-39
2021/07/05 01:19:49;;;;;;;7.35;5.25;;;;;;;18.86;94.38;99715.02;1746205;82;21489;-38
2021/07/05 01:22:16;;;;;;;6.53;5.03;;;;;;;18.86;94.49;99713.25;1735874;81;21076;-38
2021/07/05 01:24:44;;;;;;;8.15;5.30;;;;;;;18.83;94.63;99712.15;1716348;82;20964;-39
2021/07/05 01:27:10;;;;;;;15.95;5.42;;;;;;;18.84;94.86;99706.42;1745972;81;21484;-38
2021/07/05 01:29:39;;;;;;;6.47;5.28;;;;;;;18.84;94.99;99709.89;1741648;81;21074;-39
2021/07/05 01:32:07;;;;;;;12.50;5.28;;;;;;;18.86;95.18;99708.47;1733656;81;21008;-38
2021/07/05 01:34:33;;;;;;;7.15;5.17;;;;;;;18.85;95.19;99703.71;1730775;82;21109;-39
2021/07/05 01:37:03;;;;;;;7.00;5.10;;;;;;;18.87;95.31;99700.52;1738290;81;20970;-41
2021/07/05 01:39:30;;;;;;;13.00;4.97;;;;;;;18.87;95.39;99703.14;1748636;82;21382;-40
2021/07/05 01:41:56;;;;;;;6.55;5.03;;;;;;;18.88;95.48;99705.27;1743013;81;20908;-39
2021/07/05 01:44:22;;;;;;;7.35;5.42;;;;;;;18.87;95.54;99703.14;1745664;81;21023;-38
2021/07/05 01:46:49;;;;;;;14.98;5.05;;;;;;;18.88;95.62;99703.51;1738027;81;21106;-38
2021/07/05 01:49:16;;;;;;;8.73;5.72;;;;;;;18.90;95.75;99700.77;1722830;82;20944;-38
2021/07/05 01:51:42;;;;;;;5.60;5.03;;;;;;;18.92;95.74;99696.27;1720891;81;20949;-38
2021/07/05 01:54:13;;;;;;;8.48;4.95;;;;;;;18.92;95.84;99699.74;1746698;81;21114;-38
2021/07/05 01:56:43;;;;;;;8.33;5.08;;;;;;;18.92;95.91;99698.42;1735141;81;21571;-38
2021/07/05 01:59:09;;;;;;;11.53;5.10;;;;;;;18.92;95.93;99698.42;1738218;81;20992;-39
2021/07/05 02:01:37;;;;;;;10.38;5.50;;;;;;;18.92;95.95;99697.57;1731123;81;21552;-38
2021/07/05 02:04:07;;;;;;;7.20;4.95;;;;;;;18.92;95.91;99695.80;1748112;82;20995;-38
2021/07/05 02:06:34;;;;;;;9.20;4.40;;;;;;;18.93;95.94;99696.17;1684855;82;20962;-38
2021/07/05 02:09:05;;;;;;;11.48;4.70;;;;;;;18.93;95.98;99700.11;1741497;82;20940;-38
2021/07/05 02:11:32;;;;;;;10.85;4.80;;;;;;;18.95;96.05;99692.16;1731352;81;21741;-38
2021/07/05 02:13:58;;;;;;;12.18;5.00;;;;;;;18.95;96.13;99695.60;1746695;82;20976;-39
2021/07/05 02:16:25;;;;;;;11.73;5.45;;;;;;;18.96;96.23;99688.10;1744389;82;21039;-39
2021/07/05 02:18:51;;;;;;;5.60;4.97;;;;;;;18.99;96.21;99692.80;1743511;82;21038;-39
2021/07/05 02:21:18;;;;;;;9.75;4.70;;;;;;;19.01;96.23;99689.61;1733939;81;21570;-39
2021/07/05 02:23:44;;;;;;;13.28;5.50;;;;;;;19.02;96.20;99677.72;1732639;81;21117;-38
2021/07/05 02:26:11;;;;;;;13.30;5.42;;;;;;;19.04;96.22;99682.84;1742903;80;21039;-38
2021/07/05 02:28:38;;;;;;;9.58;4.75;;;;;;;19.06;96.18;99679.65;1747734;82;21501;-38
2021/07/05 02:31:05;;;;;;;9.00;5.58;;;;;;;19.09;96.19;99679.47;1742723;81;21458;-38
2021/07/05 02:33:33;;;;;;;6.90;4.58;;;;;;;19.14;96.09;99679.14;1718388;82;21477;-38
2021/07/05 02:36:00;;;;;;;11.10;5.55;;;;;;;19.18;95.95;99684.09;1730115;81;21061;-38
2021/07/05 02:38:27;;;;;;;8.80;4.87;;;;;;;19.23;95.90;99675.44;1746558;81;20964;-38
2021/07/05 02:40:55;;;;;;;8.33;4.22;;;;;;;19.28;95.80;99679.08;1749224;81;21018;-38
2021/07/05 02:43:24;;;;;;;8.08;4.30;;;;;;;19.34;95.62;99683.08;1743073;81;20912;-38
2021/07/05 02:45:54;;;;;;;8.75;4.53;;;;;;;19.42;95.43;99686.47;1719438;82;20960;-38
2021/07/05 02:48:22;;;;;;;6.25;4.17;;;;;;;19.48;95.20;99684.27;1736895;81;21127;-38
2021/07/05 02:50:53;;;;;;;8.68;4.50;;;;;;;19.55;94.96;99682.53;1747959;82;20998;-38
2021/07/05 02:53:20;;;;;;;6.08;4.25;;;;;;;19.62;94.70;99687.75;1734394;82;21510;-39
2021/07/05 02:55:46;;;;;;;8.58;4.53;;;;;;;19.68;94.33;99687.33;1746878;81;21460;-38
2021/07/05 02:58:12;;;;;;;5.75;4.37;;;;;;;19.74;94.00;99682.95;1747323;82;21489;-38
2021/07/05 03:00:42;;;;;;;8.95;4.17;;;;;;;19.81;93.66;99678.95;1733870;81;21533;-38
2021/07/05 03:03:09;;;;;;;12.45;4.25;;;;;;;19.87;93.21;99684.74;1712983;82;20917;-38
2021/07/05 03:05:37;;;;;;;6.92;4.47;;;;;;;19.91;92.75;99686.23;1741760;81;21675;-39
2021/07/05 03:08:04;;;;;;;7.25;4.78;;;;;;;19.95;92.50;99684.58;1743926;81;20995;-38
2021/07/05 03:10:34;;;;;;;8.05;4.50;;;;;;;20.01;92.27;99679.38;1746376;82;21348;-38
2021/07/05 03:13:16;;;;;;;8.78;4.20;;;;;;;20.05;91.96;99669.51;1749317;80;21506;-38
2021/07/05 03:15:43;;;;;;;9.20;4.67;;;;;;;20.11;91.74;99670.38;1742298;81;21532;-38
2021/07/05 03:18:10;;;;;;;8.60;4.30;;;;;;;20.19;91.47;99680.34;1740893;81;20939;-38
2021/07/05 03:20:41;;;;;;;10.15;4.37;;;;;;;20.23;91.04;99677.86;1743928;81;20996;-38
2021/07/05 03:23:10;;;;;;;8.93;5.05;;;;;;;20.28;90.85;99677.05;1739228;81;20940;-38
2021/07/05 03:25:37;;;;;;;6.58;4.92;;;;;;;20.35;90.54;99676.14;1746150;80;21022;-38
2021/07/05 03:28:05;;;;;;;9.10;4.62;;;;;;;20.40;90.23;99679.27;1743913;81;21018;-38
2021/07/05 03:30:33;;;;;;;14.98;5.78;;;;;;;20.47;89.96;99670.48;1695459;82;20971;-38
2021/07/05 03:32:59;;;;;;;6.72;4.85;;;;;;;20.52;89.57;99665.72;1749547;82;20924;-38
2021/07/05 03:35:26;;;;;;;12.00;4.97;;;;;;;20.58;89.29;99661.32;1747138;82;20963;-38
2021/07/05 03:37:53;;;;;;;7.12;5.15;;;;;;;20.64;89.08;99665.30;1747585;81;21137;-39
2021/07/05 03:40:24;;;;;;;8.55;5.00;;;;;;;20.71;88.79;99666.52;1729337;81;21752;-39
2021/07/05 03:42:51;;;;;;;9.58;4.85;;;;;;;20.83;88.50;99666.61;1728068;81;20998;-38
2021/07/05 03:45:20;;;;;;;5.00;4.47;;;;;;;20.95;88.29;99664.37;1735703;81;20936;-39
2021/07/05 03:47:46;;;;;;;10.35;5.30;;;;;;;21.15;88.08;99662.89;1736800;81;21033;-39
2021/07/05 03:50:14;;;;;;;7.70;5.58;;;;;;;21.41;87.55;99661.84;1748760;81;21147;-39
2021/07/05 03:52:41;;;;;;;8.18;5.60;;;;;;;21.66;86.45;99663.47;1715719;81;21644;-39
2021/07/05 03:55:10;;;;;;;6.25;5.30;;;;;;;21.89;85.46;99655.57;1741643;82;20935;-39
2021/07/05 03:57:36;;;;;;;8.95;5.20;;;;;;;22.12;84.01;99660.32;1731607;81;20948;-39
2021/07/05 04:00:05;;;;;;;9.68;5.70;;;;;;;22.24;82.07;99660.67;1731758;81;21046;-39
2021/07/05 04:02:33;;;;;;;7.15;6.45;;;;;;;22.37;82.04;99666.26;1712766;81;21055;-39
2021/07/05 04:05:00;;;;;;;6.05;5.45;;;;;;;22.52;81.65;99665.52;1737309;81;20900;-39
2021/07/05 04:07:26;;;;;;;5.72;5.12;;;;;;;22.64;80.26;99671.13;1730262;81;20966;-40
2021/07/05 04:09:53;;;;;;;8.70;5.50;;;;;;;22.68;79.66;99663.79;1691328;83;20947;-39
2021/07/05 04:12:20;;;;;;;8.10;5.30;;;;;;;22.66;79.35;99657.80;1670791;83;21138;-39
2021/07/05 04:14:47;;;;;;;8.80;5.10;;;;;;;22.67;79.57;99660.33;1674545;85;21142;-39
2021/07/05 04:17:13;;;;;;;9.10;5.65;;;;;;;22.74;78.91;99659.81;1671581;84;21504;-39
2021/07/05 04:19:41;;;;;;;5.85;5.00;;;;;;;22.75;78.85;99648.30;1675289;84;20998;-39
2021/07/05 04:22:07;;;;;;;7.50;5.50;;;;;;;22.81;78.97;99655.70;1649253;85;20965;-39
2021/07/05 04:24:34;;;;;;;8.58;5.47;;;;;;;22.90;77.56;99653.64;1661449;84;21016;-39
2021/07/05 04:27:00;;;;;;;8.93;5.60;;;;;;;22.78;77.94;99639.66;1688783;83;21911;-39
2021/07/05 04:29:27;;;;;;;10.58;6.58;;;;;;;22.73;77.72;99646.27;1703245;83;21644;-39
2021/07/05 04:31:53;;;;;;;6.75;5.90;;;;;;;22.61;78.22;99646.80;1702107;83;21511;-39
2021/07/05 04:34:19;;;;;;;12.80;6.10;;;;;;;22.51;78.83;99646.25;1719685;83;21007;-38
2021/07/05 04:36:46;;;;;;;7.35;5.90;;;;;;;22.41;79.51;99640.50;1696073;83;20968;-39
2021/07/05 04:39:12;;;;;;;7.75;6.12;;;;;;;22.40;80.03;99650.19;1688945;83;21094;-39
2021/07/05 04:41:39;;;;;;;16.80;6.45;;;;;;;22.44;80.21;99642.87;1748276;82;20968;-39
2021/07/05 04:44:05;;;;;;;10.23;6.75;;;;;;;22.48;80.17;99646.50;1747674;82;21334;-39
2021/07/05 04:46:33;;;;;;;9.73;6.22;;;;;;;22.49;79.63;99641.59;1747283;81;21017;-39
2021/07/05 04:49:00;;;;;;;10.60;6.72;;;;;;;22.47;79.59;99638.70;1737260;81;21012;-39
2021/07/05 04:51:27;;;;;;;7.33;5.97;;;;;;;22.46;80.00;99638.31;1748913;81;21073;-39
2021/07/05 04:53:53;;;;;;;12.40;6.47;;;;;;;22.47;80.08;99635.57;1737657;81;20983;-39
2021/07/05 04:56:20;;;;;;;8.25;6.50;;;;;;;22.47;79.80;99639.52;1745505;81;21050;-39
2021/07/05 04:58:46;;;;;;;7.65;6.80;;;;;;;22.48;79.79;99647.82;1744430;81;21026;-39
2021/07/05 05:01:14;;;;;;;23.20;6.20;;;;;;;22.46;79.95;99650.18;1743358;81;20967;-39
2021/07/05 05:03:41;;;;;;;11.38;7.53;;;;;;;22.47;80.26;99658.48;1744428;81;21243;-39
2021/07/05 05:06:09;;;;;;;8.75;6.58;;;;;;;22.53;80.66;99663.24;1747833;81;20955;-39
2021/07/05 05:08:35;;;;;;;6.78;6.28;;;;;;;22.61;80.29;99655.56;1748735;82;20884;-40
2021/07/05 05:11:02;;;;;;;14.90;6.95;;;;;;;22.71;80.07;99650.84;1744563;81;21116;-39
2021/07/05 05:13:29;;;;;;;8.78;6.87;;;;;;;22.86;80.13;99649.59;1747339;80;21462;-39
2021/07/05 05:15:55;;;;;;;7.33;6.60;;;;;;;23.00;79.09;99652.39;1749332;81;21134;-39
2021/07/05 05:18:22;;;;;;;9.80;6.90;;;;;;;23.14;78.15;99658.30;1733046;81;20912;-39
2021/07/05 05:20:48;;;;;;;6.67;5.87;;;;;;;23.27;77.84;99652.84;1750200;80;21018;-40
2021/07/05 05:23:16;;;;;;;14.98;6.25;;;;;;;23.41;77.72;99652.52;1699900;82;20996;-40
2021/07/05 05:25:42;;;;;;;9.10;6.22;;;;;;;23.59;77.20;99653.21;1684036;83;20936;-39
2021/07/05 05:28:09;;;;;;;11.03;6.50;;;;;;;23.74;75.98;99647.08;1713455;82;21792;-39
2021/07/05 05:30:35;;;;;;;6.75;5.95;;;;;;;23.88;75.45;99655.97;1679632;83;21549;-39
2021/07/05 05:33:02;;;;;;;6.75;6.15;;;;;;;24.06;75.54;99645.63;1701345;82;21032;-39
2021/07/05 05:35:28;;;;;;;6.72;5.53;;;;;;;24.31;75.00;99647.91;1711064;82;21028;-39
2021/07/05 05:37:56;;;;;;;6.12;5.60;;;;;;;24.49;73.54;99649.38;1748756;81;20912;-39
2021/07/05 05:40:22;;;;;;;8.65;6.40;;;;;;;24.57;73.45;99647.38;1748139;81;21958;-39
2021/07/05 05:42:49;;;;;;;10.70;5.72;;;;;;;24.76;72.49;99635.50;1748798;81;21330;-39
2021/07/05 05:45:15;;;;;;;7.95;5.72;;;;;;;24.89;72.00;99639.66;1749418;81;21038;-39
2021/07/05 05:47:42;;;;;;;8.18;5.55;;;;;;;24.99;70.74;99644.44;1750597;80;21043;-39
2021/07/05 05:50:10;;;;;;;9.50;6.05;;;;;;;25.01;70.63;99644.30;1742780;81;20948;-39
2021/07/05 05:52:36;;;;;;;10.05;5.87;;;;;;;25.03;70.71;99646.32;1746777;81;21158;-40
2021/07/05 05:55:04;;;;;;;9.90;8.20;;;;;;;25.03;70.21;99652.46;1727660;81;20948;-39
2021/07/05 05:57:32;;;;;;;11.60;6.72;;;;;;;25.10;70.54;99648.73;1747935;81;20911;-39
2021/07/05 06:00:01;;;;;;;10.78;5.80;;;;;;;25.15;70.53;99661.08;1747442;81;21004;-39
2021/07/05 06:02:28;;;;;;;7.83;5.33;;;;;;;25.25;70.50;99661.03;1754329;81;20915;-40
2021/07/05 06:04:55;;;;;;;7.03;4.90;;;;;;;25.37;69.99;99656.41;1755074;81;22138;-40
2021/07/05 06:07:22;;;;;;;5.37;4.87;;;;;;;25.54;69.61;99662.31;1741742;80;21458;-40
2021/07/05 06:09:48;;;;;;;13.58;5.00;;;;;;;25.71;68.86;99654.59;1752463;81;21075;-40
2021/07/05 06:12:17;;;;;;;9.03;4.90;;;;;;;25.81;68.00;99659.34;1752599;81;20897;-40
2021/07/05 06:14:44;;;;;;;7.22;5.22;;;;;;;25.88;67.65;99654.77;1754516;81;20936;-40
2021/07/05 06:17:10;;;;;;;8.30;5.60;;;;;;;25.92;66.42;99648.22;1752954;81;21170;-40
2021/07/05 06:19:37;;;;;;;6.67;4.47;;;;;;;25.87;66.89;99650.45;1750910;81;21105;-40
2021/07/05 06:22:12;;;;;;;7.55;4.67;;;;;;;25.90;67.37;99644.88;1745560;81;21588;-40
2021/07/05 06:24:32;;;;;;;7.12;4.78;;;;;;;26.07;67.38;99646.72;1744418;80;21555;-38
2021/07/05 06:26:58;;;;;;;10.85;4.90;;;;;;;26.32;67.56;99652.31;1752849;81;20956;-39
2021/07/05 06:29:25;;;;;;;5.67;5.10;;;;;;;26.63;67.13;99663.05;1752714;81;21295;-40
2021/07/05 06:31:51;;;;;;;9.48;5.42;;;;;;;26.86;64.37;99659.45;1746404;81;20991;-39
2021/07/05 06:34:18;;;;;;;9.05;4.83;;;;;;;26.87;64.47;99665.09;1726759;81;21034;-39
2021/07/05 06:36:44;;;;;;;8.75;4.97;;;;;;;26.90;64.90;99658.66;1726923;81;20951;-39
2021/07/05 06:39:11;;;;;;;10.23;5.28;;;;;;;26.93;64.77;99656.55;1753949;81;20979;-39
2021/07/05 06:41:37;;;;;;;12.55;4.70;;;;;;;27.09;64.60;99656.30;1753598;81;21215;-39
2021/07/05 06:44:04;;;;;;;5.85;4.47;;;;;;;27.23;63.44;99653.09;1753507;81;20893;-39
2021/07/05 06:46:30;;;;;;;8.88;4.70;;;;;;;27.29;63.44;99652.97;1753395;80;21475;-39
2021/07/05 06:48:57;;;;;;;9.93;4.60;;;;;;;27.30;62.49;99646.66;1736386;81;21004;-39
2021/07/05 06:51:25;;;;;;;13.38;4.50;;;;;;;27.45;63.12;99646.06;1744423;81;20979;-38
2021/07/05 06:53:51;;;;;;;13.90;4.65;;;;;;;27.65;61.91;99646.68;1743014;81;21128;-39
2021/07/05 06:56:20;;;;;;;9.33;5.10;;;;;;;27.70;61.96;99640.89;1754777;81;20948;-40
2021/07/05 06:58:46;;;;;;;9.08;5.12;;;;;;;27.76;60.68;99639.77;1754128;81;20912;-40
2021/07/05 07:01:12;;;;;;;7.45;4.08;;;;;;;27.59;60.49;99632.70;1751916;81;20974;-40
2021/07/05 07:03:39;;;;;;;12.18;4.62;;;;;;;27.40;60.81;99639.41;1748130;80;21027;-39
2021/07/05 07:06:06;;;;;;;9.30;4.20;;;;;;;27.30;61.31;99641.35;1746058;81;21038;-40
2021/07/05 07:08:32;;;;;;;6.87;4.35;;;;;;;27.19;61.42;99639.80;1748605;81;20959;-40
2021/07/05 07:10:59;;;;;;;6.65;4.12;;;;;;;27.12;62.55;99641.38;1751846;81;21488;-40
2021/07/05 07:13:26;;;;;;;7.90;4.15;;;;;;;27.18;62.04;99626.17;1754126;81;20968;-39
2021/07/05 07:15:55;;;;;;;6.78;4.20;;;;;;;27.19;62.38;99630.50;1748473;80;20958;-40
2021/07/05 07:21:01;;;;;;;10.10;3.90;;;;;;;27.27;60.86;99616.41;1752879;81;20979;-39
2021/07/05 07:23:28;;;;;;;9.88;4.47;;;;;;;27.37;60.69;99625.59;1751112;80;21011;-41
2021/07/05 07:25:56;;;;;;;7.80;3.80;;;;;;;27.45;60.71;99616.36;1751927;80;21469;-39
2021/07/05 07:28:23;;;;;;;13.03;4.40;;;;;;;27.61;61.52;99619.61;1752639;81;21004;-39
2021/07/05 07:30:51;;;;;;;10.40;3.95;;;;;;;27.81;59.38;99634.80;1753357;81;21398;-39
2021/07/05 07:33:18;;;;;;;6.45;4.08;;;;;;;27.90;60.24;99629.02;1754405;81;21469;-39
2021/07/05 07:35:45;;;;;;;11.33;3.98;;;;;;;28.17;59.25;99631.62;1749302;81;21455;-39
2021/07/05 07:38:13;;;;;;;11.48;4.40;;;;;;;28.31;58.71;99636.28;1753379;80;20959;-40
2021/07/05 07:40:41;;;;;;;10.00;4.40;;;;;;;28.36;57.96;99628.63;1739993;81;20848;-40
2021/07/05 07:43:08;;;;;;;11.45;4.75;;;;;;;28.41;58.62;99634.80;1714812;81;21128;-40
2021/07/05 07:45:34;;;;;;;5.45;4.00;;;;;;;28.51;58.64;99641.30;1740640;81;20946;-40
2021/07/05 07:48:01;;;;;;;9.95;4.75;;;;;;;28.75;58.06;99643.13;1733205;81;21009;-40
2021/07/05 07:50:27;;;;;;;8.73;4.42;;;;;;;28.99;57.94;99637.99;1736327;81;20924;-40
2021/07/05 07:52:56;;;;;;;5.30;3.52;;;;;;;29.20;56.96;99639.62;1741123;81;20935;-39
2021/07/05 07:55:23;;;;;;;8.00;4.17;;;;;;;29.36;54.55;99620.58;1726500;81;21172;-39
2021/07/05 07:57:51;;;;;;;7.97;3.55;;;;;;;29.35;54.77;99619.77;1731349;82;21031;-39
2021/07/05 08:00:19;;;;;;;6.72;4.08;;;;;;;29.41;54.74;99642.76;1739874;81;21507;-39
2021/07/05 08:02:45;;;;;;;4.22;3.27;;;;;;;29.34;54.44;99638.58;1743473;81;20951;-39
2021/07/05 08:05:12;;;;;;;3.75;3.47;;;;;;;29.27;55.31;99637.60;1701824;81;21070;-39
2021/07/05 08:07:42;;;;;;;5.10;4.12;;;;;;;29.35;54.58;99641.08;1716938;81;21150;-39
2021/07/05 08:10:14;;;;;;;8.30;3.87;;;;;;;29.42;54.40;99631.09;1729810;81;20955;-40
2021/07/05 08:12:43;;;;;;;9.33;3.58;;;;;;;29.42;55.68;99633.24;1699514;83;21584;-39
2021/07/05 08:15:13;;;;;;;12.53;3.80;;;;;;;29.66;55.00;99626.16;1709484;82;20951;-40
2021/07/05 08:17:43;;;;;;;8.25;3.20;;;;;;;29.61;52.35;99629.37;1672876;84;21419;-40
2021/07/05 08:20:11;;;;;;;5.20;3.40;;;;;;;29.32;52.69;99625.92;1663378;85;21088;-40
2021/07/05 08:22:37;;;;;;;7.12;3.50;;;;;;;29.20;54.44;99636.96;1690800;83;21382;-40
2021/07/05 08:25:05;;;;;;;3.40;3.10;;;;;;;29.33;54.14;99631.58;1690387;83;20991;-40
2021/07/05 08:27:34;;;;;;;5.67;3.85;;;;;;;29.52;53.82;99636.56;1692956;83;21047;-39
2021/07/05 08:30:04;;;;;;;5.22;3.45;;;;;;;29.48;53.26;99640.58;1669861;83;20965;-40
2021/07/05 08:32:31;;;;;;;6.37;3.42;;;;;;;29.41;52.06;99642.23;1704884;83;21100;-40
2021/07/05 08:34:57;;;;;;;15.70;4.35;;;;;;;29.39;53.42;99633.07;1706870;83;20965;-39
2021/07/05 08:37:24;;;;;;;4.72;3.10;;;;;;;29.41;52.71;99637.43;1699222;83;21021;-39
2021/07/05 08:39:51;;;;;;;9.63;3.45;;;;;;;29.37;53.10;99635.08;1690112;82;21604;-40
2021/07/05 08:42:23;;;;;;;5.12;3.42;;;;;;;29.49;51.65;99630.24;1665830;82;21020;-40
2021/07/05 08:44:50;;;;;;;11.10;3.25;;;;;;;29.63;52.51;99623.84;1698511;83;21113;-40
2021/07/05 08:47:18;;;;;;;8.03;3.33;;;;;;;29.75;52.08;99622.96;1682911;83;21034;-39
2021/07/05 08:49:46;;;;;;;10.00;3.20;;;;;;;29.78;52.27;99623.45;1679461;83;20997;-40
2021/07/05 08:52:12;;;;;;;7.03;3.50;;;;;;;29.90;52.42;99621.72;1657793;84;20953;-39
2021/07/05 08:54:38;;;;;;;4.50;3.22;;;;;;;30.02;52.03;99617.69;1684973;84;20953;-39
2021/07/05 08:57:05;;;;;;;3.42;2.95;;;;;;;30.28;50.89;99615.19;1681015;83;21077;-40
2021/07/05 08:59:32;;;;;;;7.75;3.47;;;;;;;30.40;50.54;99605.74;1702082;82;21034;-40
2021/07/05 09:01:59;;;;;;;9.35;3.83;;;;;;;30.54;50.63;99608.65;1659688;84;21064;-40
2021/07/05 09:04:25;;;;;;;4.67;3.37;;;;;;;30.63;50.72;99606.25;1746895;81;21015;-40
2021/07/05 09:07:07;;;;;;;6.70;3.17;;;;;;;30.84;49.84;99625.29;1746411;81;21006;-41
2021/07/05 09:09:35;;;;;;;10.95;3.15;;;;;;;30.86;49.13;99604.56;1745468;81;21112;-40
2021/07/05 09:12:08;;;;;;;6.50;3.20;;;;;;;30.80;49.44;99605.59;1743469;81;21513;-40
2021/07/05 09:14:37;;;;;;;78.05;5.25;;;;;;;30.77;49.34;99603.29;1745511;81;21062;-43
2021/07/05 09:17:09;;;;;;;5.58;3.37;;;;;;;30.71;48.67;99609.89;1746614;81;21007;-39
2021/07/05 09:19:39;;;;;;;9.23;3.02;;;;;;;30.28;49.54;99597.84;1745966;82;21026;-40
2021/07/05 09:22:08;;;;;;;6.42;3.22;;;;;;;29.91;50.40;99608.22;1718258;82;21204;-40
2021/07/05 09:24:41;;;;;;;5.97;3.00;;;;;;;29.62;51.16;99606.19;1717497;80;21973;-40
2021/07/05 09:27:20;;;;;;;9.65;2.90;;;;;;;29.42;51.74;99601.27;1739873;81;21034;-40
2021/07/05 09:29:47;;;;;;;4.92;3.00;;;;;;;29.29;52.21;99599.63;1748018;80;20959;-40
2021/07/05 09:32:26;;;;;;;7.28;2.95;;;;;;;29.31;52.09;99609.61;1747128;81;20986;-40
2021/07/05 09:34:53;;;;;;;6.00;2.67;;;;;;;29.33;51.47;99612.94;1719961;82;21016;-40
2021/07/05 09:37:31;;;;;;;3.60;2.98;;;;;;;29.24;51.20;99604.98;1711589;82;21553;-41
2021/07/05 09:40:10;;;;;;;5.60;2.85;;;;;;;29.22;51.04;99608.31;1703307;82;20983;-40
2021/07/05 09:42:44;;;;;;;10.20;3.42;;;;;;;29.25;52.13;99605.30;1748119;81;20950;-40
2021/07/05 09:45:16;;;;;;;6.15;2.85;;;;;;;29.33;52.64;99606.27;1738523;82;21469;-40
2021/07/05 09:47:42;;;;;;;4.60;2.70;;;;;;;29.54;52.61;99587.06;1692612;82;21066;-40
2021/07/05 09:50:16;;;;;;;7.67;2.87;;;;;;;29.79;51.15;99596.27;1745003;81;20979;-40
2021/07/05 09:52:43;;;;;;;6.25;2.42;;;;;;;29.99;50.02;99605.17;1742353;82;20986;-40
2021/07/05 09:55:14;;;;;;;3.25;2.72;;;;;;;30.04;50.16;99593.00;1747973;82;20951;-40
2021/07/05 09:57:51;;;;;;;8.25;2.80;;;;;;;30.02;49.75;99591.02;1747259;82;21023;-40
2021/07/05 10:00:22;;;;;;;5.37;2.47;;;;;;;30.04;50.74;99591.67;1747203;81;20975;-40
2021/07/05 10:03:06;;;;;;;6.50;2.60;;;;;;;30.08;49.49;99594.30;1740844;81;22169;-39
2021/07/05 10:05:47;;;;;;;12.88;2.72;;;;;;;30.12;48.68;99594.80;1742194;82;20936;-41
2021/07/05 10:08:16;;;;;;;9.55;2.98;;;;;;;29.97;49.14;99591.50;1740912;81;20939;-42
2021/07/05 10:10:45;;;;;;;6.37;2.72;;;;;;;30.11;50.10;99592.61;1747263;81;21019;-41
2021/07/05 10:13:17;;;;;;;4.72;3.27;;;;;;;30.26;49.58;99594.52;1748372;82;21125;-42
2021/07/05 10:15:46;;;;;;;10.40;2.70;;;;;;;30.30;49.60;99587.81;1744810;82;20979;-42
2021/07/05 10:18:13;;;;;;;4.47;2.77;;;;;;;30.42;48.24;99593.56;1747541;82;20975;-40
2021/07/05 10:20:46;;;;;;;8.38;2.95;;;;;;;30.43;48.62;99586.38;1749122;82;21493;-40
2021/07/05 10:23:15;;;;;;;4.90;2.72;;;;;;;30.33;48.67;99596.80;1748840;82;20868;-39
2021/07/05 10:25:45;;;;;;;10.93;2.80;;;;;;;30.19;49.54;99597.56;1721729;82;21023;-39
2021/07/05 10:28:11;;;;;;;4.80;2.60;;;;;;;30.12;48.85;99596.13;1748338;80;21370;-40
2021/07/05 10:30:38;;;;;;;8.93;3.17;;;;;;;29.99;49.93;99594.01;1752012;80;21434;-41
2021/07/05 10:33:05;;;;;;;8.25;2.85;;;;;;;29.94;48.89;99583.05;1716351;81;21027;-39
2021/07/05 10:35:50;;;;;;;12.78;3.42;;;;;;;29.74;49.79;99590.64;1745514;81;21598;-42
2021/07/05 10:38:34;;;;;;;8.03;3.40;;;;;;;29.70;50.27;99586.66;1745033;81;21086;-42
2021/07/05 10:41:09;;;;;;;11.55;3.08;;;;;;;29.73;50.35;99584.98;1752561;80;21505;-42
2021/07/05 10:43:55;;;;;;;11.28;3.42;;;;;;;29.72;49.85;99592.16;1753294;80;20935;-42
2021/07/05 10:46:48;;;;;;;6.92;2.40;;;;;;;29.59;50.22;99577.22;1751318;81;21058;-48
2021/07/05 10:49:35;;;;;;;4.47;2.87;;;;;;;29.49;50.35;99590.27;1751182;80;21042;-41
2021/07/05 10:52:08;;;;;;;5.80;2.72;;;;;;;29.70;49.85;99583.52;1752658;81;21518;-39
2021/07/05 10:55:50;;;;;;;6.83;2.80;;;;;;;30.11;50.73;99574.46;1805707;78;22495;-41
2021/07/05 10:58:32;;;;;;;9.98;2.85;;;;;;;30.33;50.27;99589.31;1749523;80;21033;-42
2021/07/05 11:01:02;;;;;;;8.48;2.65;;;;;;;30.42;48.60;99580.70;1753443;80;21138;-41
2021/07/05 11:03:43;;;;;;;5.53;3.10;;;;;;;30.16;49.07;99582.75;1734882;80;20936;-41
2021/07/05 11:06:31;;;;;;;7.30;3.10;;;;;;;29.81;49.92;99576.44;1760600;80;20963;-43
2021/07/05 11:08:57;;;;;;;20.80;3.17;;;;;;;29.49;51.91;99584.94;1761289;80;20916;-41
2021/07/05 11:11:29;;;;;;;12.53;3.37;;;;;;;29.15;51.91;99592.66;1659485;81;20999;-42
2021/07/05 11:14:35;;;;;;;9.38;2.80;;;;;;;28.77;52.39;99589.20;1704317;83;21933;-42
2021/07/05 11:17:12;;;;;;;7.28;2.90;;;;;;;28.23;54.47;99597.71;1696880;84;20991;-42
2021/07/05 11:19:58;;;;;;;8.40;3.10;;;;;;;27.75;56.94;99603.55;1683450;83;20975;-41
2021/07/05 11:22:35;;;;;;;5.92;2.92;;;;;;;27.53;58.22;99607.12;1703301;83;21036;-39
2021/07/05 11:25:22;;;;;;;3.10;2.65;;;;;;;27.26;59.90;99606.77;1721640;82;21516;-41
2021/07/05 11:28:00;;;;;;;9.65;2.80;;;;;;;27.11;61.20;99622.45;1693095;84;21564;-39
2021/07/05 11:30:36;;;;;;;33.33;3.80;;;;;;;26.95;63.16;99619.20;1698887;83;21513;-40
2021/07/05 11:33:15;;;;;;;7.17;3.15;;;;;;;26.71;65.99;99615.86;1685886;82;21015;-41
2021/07/05 11:36:00;;;;;;;5.22;2.95;;;;;;;26.35;67.02;99601.61;1665826;84;20997;-42
2021/07/05 11:38:41;;;;;;;9.43;3.05;;;;;;;26.03;68.37;99591.00;1685597;83;21529;-40
2021/07/05 11:41:21;;;;;;;12.68;2.98;;;;;;;25.82;70.06;99592.11;1690415;83;21118;-40
2021/07/05 11:44:00;;;;;;;10.18;3.27;;;;;;;25.73;71.54;99584.20;1685012;83;21053;-41